»·PEaware :: SWA131 KSNA-KPHX

SWA131 :: KSNA-KPHX

FLIGHT INFORMATION

Flight Status: Arrived
Operator:
Southwest Airlines
More flights by this operator :: More flights under this callsign
Pilot: Nick M. (27760)
Aircraft: BOEING 737-700
(B737)
More flights by this aircraft type
Origin: KSNA John Wayne-Orange Co
United States
Destination: KPHX Phoenix Sky Harbor Intl
United States
More flights between these airports :: More routes between these airports
Route: +PIGGN2 CNERY BLH HYDRR1
File this flight plan on PilotEdge
Remarks:
Altitude:
(Current/Filed)
37,000ft
Speed:
(Current/Filed)
500kts
Departed: 27-Jan-20 05:00 PM
Arrived: 27-Jan-20 05:55 PM
Distance/Time
Traveled:
293nm/0:55
Distance/Time
To Go:
Arrived

Flight Plot

Page will automatically refresh every two minutes.

Flight plan parsing failed; only flown route is shown


Map Options




Map Legend


Flown Route
Filed Route
Departure Airport
Arrival Airport
Navaid (VOR, NDB)
Fix

Horizontal Profiles

Position Reports

Time Latitude Longitude Heading Altitude Ground
Speed
27-Jan-20 16:31 33.681115 -117.861238 118 64ft 0kts
27-Jan-20 16:32 33.681115 -117.861238 118 64ft 0kts
27-Jan-20 16:33 33.681115 -117.861238 118 64ft 0kts
27-Jan-20 16:34 33.681115 -117.861238 118 64ft 0kts
27-Jan-20 16:35 33.681115 -117.861238 118 64ft 0kts
27-Jan-20 16:36 33.681115 -117.861238 118 64ft 0kts
27-Jan-20 16:37 33.681115 -117.861238 118 64ft 0kts
27-Jan-20 16:38 33.681115 -117.861238 118 64ft 0kts
27-Jan-20 16:39 33.681115 -117.861238 118 64ft 0kts
27-Jan-20 16:40 33.681115 -117.861238 118 64ft 0kts
27-Jan-20 16:41 33.681115 -117.861238 118 64ft 0kts
27-Jan-20 16:42 33.681115 -117.861238 118 64ft 0kts
27-Jan-20 16:43 33.681115 -117.861238 118 64ft 0kts
27-Jan-20 16:44 33.681115 -117.861238 118 64ft 0kts
27-Jan-20 16:45 33.681115 -117.861238 118 64ft 0kts
27-Jan-20 16:46 33.681115 -117.861238 118 64ft 0kts
27-Jan-20 16:47 33.681115 -117.861238 118 64ft 0kts
27-Jan-20 16:48 33.681115 -117.861238 118 64ft 0kts
27-Jan-20 16:49 33.681115 -117.861238 118 64ft 0kts
27-Jan-20 16:50 33.681249 -117.861494 138 64ft 2kts
27-Jan-20 16:51 33.681764 -117.861633 200 64ft 2kts
27-Jan-20 16:52 33.681868 -117.861573 208 64ft 0kts
27-Jan-20 16:53 33.681868 -117.861573 208 64ft 0kts
27-Jan-20 16:54 33.681868 -117.861573 208 64ft 0kts
27-Jan-20 16:55 33.681751 -117.861649 208 64ft 7kts
27-Jan-20 16:56 33.680501 -117.862729 286 64ft 5kts
27-Jan-20 16:57 33.681113 -117.864164 297 64ft 5kts
27-Jan-20 16:59 33.681167 -117.865362 206 64ft 0kts
27-Jan-20 16:59 33.660851 -117.877850 205 1475ft 153kts
27-Jan-20 17:01 33.595081 -117.896320 182 4855ft 269kts
27-Jan-20 17:01 33.534044 -117.876643 147 8711ft 291kts
27-Jan-20 17:02 33.481870 -117.793540 106 11908ft 352kts
27-Jan-20 17:03 33.491793 -117.677572 60 15801ft 365kts
27-Jan-20 17:04 33.542515 -117.568954 57 19900ft 389kts
27-Jan-20 17:05 33.562242 -117.435612 92 23168ft 434kts
27-Jan-20 17:06 33.526323 -117.297202 103 23211ft 433kts
27-Jan-20 17:07 33.504885 -117.156048 91 23211ft 429kts
27-Jan-20 17:08 33.500512 -117.009914 87 26094ft 447kts
27-Jan-20 17:09 33.497685 -116.858049 87 28888ft 465kts
27-Jan-20 17:10 33.495689 -116.700725 87 31610ft 476kts
27-Jan-20 17:11 33.493714 -116.543607 87 34595ft 471kts
27-Jan-20 17:12 33.491870 -116.386991 88 36940ft 474kts
27-Jan-20 17:13 33.489174 -116.225317 89 37193ft 486kts
27-Jan-20 17:14 33.494191 -116.064486 80 37197ft 483kts
27-Jan-20 17:15 33.523563 -115.908430 68 37202ft 479kts
27-Jan-20 17:16 33.566752 -115.757872 66 37210ft 478kts
27-Jan-20 17:17 33.613202 -115.609191 74 37214ft 481kts
27-Jan-20 17:18 33.614443 -115.447479 90 37222ft 487kts
27-Jan-20 17:19 33.609687 -115.284879 89 37214ft 489kts
27-Jan-20 17:20 33.605239 -115.121841 89 37208ft 490kts
27-Jan-20 17:21 33.601072 -114.958399 89 37186ft 494kts
27-Jan-20 17:22 33.594921 -114.790555 95 37179ft 506kts
27-Jan-20 17:23 33.569639 -114.624849 101 37047ft 500kts
27-Jan-20 17:24 33.536988 -114.461299 99 33450ft 507kts
27-Jan-20 17:25 33.504504 -114.295155 100 29002ft 514kts
27-Jan-20 17:26 33.471500 -114.126190 100 25180ft 516kts
27-Jan-20 17:27 33.440476 -113.969854 99 25154ft 440kts
27-Jan-20 17:28 33.411847 -113.828017 99 25156ft 438kts
27-Jan-20 17:29 33.382981 -113.686118 99 25157ft 439kts
27-Jan-20 17:30 33.354412 -113.544431 99 25157ft 440kts
27-Jan-20 17:31 33.327312 -113.402608 96 24367ft 427kts
27-Jan-20 17:32 33.303719 -113.265153 97 22154ft 419kts
27-Jan-20 17:33 33.283355 -113.131118 95 19847ft 405kts
27-Jan-20 17:34 33.276080 -113.001005 82 17430ft 384kts
27-Jan-20 17:35 33.279501 -112.874554 82 17138ft 381kts
27-Jan-20 17:36 33.286969 -112.751670 76 14995ft 360kts
27-Jan-20 17:37 33.297572 -112.642030 76 14093ft 319kts
27-Jan-20 17:38 33.307213 -112.536818 76 13661ft 318kts
27-Jan-20 17:39 33.316984 -112.433656 76 12461ft 306kts
27-Jan-20 17:40 33.326301 -112.333676 77 11263ft 301kts
27-Jan-20 17:41 33.335171 -112.236258 78 10037ft 286kts
27-Jan-20 17:42 33.343589 -112.141408 79 8882ft 293kts
27-Jan-20 17:43 33.347942 -112.047621 87 7901ft 272kts
27-Jan-20 17:44 33.346319 -111.960295 86 6999ft 255kts
27-Jan-20 17:45 33.348221 -111.878611 87 6178ft 243kts
27-Jan-20 17:46 33.345549 -111.797704 88 5457ft 240kts
27-Jan-20 17:47 33.377466 -111.751365 359 4424ft 198kts
27-Jan-20 17:48 33.410821 -111.794966 300 4020ft 181kts
27-Jan-20 17:49 33.428466 -111.848266 275 3661ft 162kts
27-Jan-20 17:50 33.428754 -111.896845 273 2868ft 126kts
27-Jan-20 17:51 33.428831 -111.937726 272 2211ft 121kts
27-Jan-20 17:53 33.428720 -111.978112 270 1562ft 118kts
27-Jan-20 17:54 33.428866 -112.014263 270 1139ft 42kts
27-Jan-20 17:55 33.431182 -112.015669 358 1139ft 13kts
27-Jan-20 17:56 33.432879 -112.013896 89 1139ft 16kts
27-Jan-20 17:57 33.433457 -112.013008 298 1139ft 2kts
27-Jan-20 17:58 33.433522 -112.013148 298 1139ft 0kts
27-Jan-20 17:59 33.433522 -112.013148 298 1139ft 0kts
27-Jan-20 18:00 33.433522 -112.013148 298 1139ft 0kts
27-Jan-20 18:01 33.433522 -112.013148 298 1139ft 0kts

Navigation Log

Ident Type
Flight plan parsing failed, navigation log unavailable